createdAt,value
2017-08-19T00:00:53.551Z,0
2017-08-19T00:01:53.221Z,0
2017-08-19T00:02:53.834Z,0
2017-08-19T00:03:53.508Z,0
2017-08-19T00:04:53.181Z,0
2017-08-19T00:05:53.490Z,0
2017-08-19T00:06:53.469Z,0
2017-08-19T00:07:53.147Z,0
2017-08-19T00:08:53.437Z,0
2017-08-19T00:09:53.435Z,0
2017-08-19T00:10:53.103Z,0
2017-08-19T00:11:53.405Z,0
2017-08-19T00:12:53.080Z,0
2017-08-19T00:13:53.681Z,0
2017-08-19T00:14:53.674Z,0
2017-08-19T00:15:53.650Z,0
2017-08-19T00:16:53.020Z,0
2017-08-19T00:17:53.322Z,0
2017-08-19T00:18:53.626Z,0
2017-08-19T00:19:53.605Z,0
2017-08-19T00:20:52.968Z,0
2017-08-19T00:21:53.585Z,0
2017-08-19T00:22:53.252Z,0
2017-08-19T00:23:53.265Z,0
2017-08-19T00:24:53.558Z,0
2017-08-19T00:25:53.526Z,0
2017-08-19T00:26:53.197Z,0
2017-08-19T00:27:53.185Z,0
2017-08-19T00:28:53.171Z,0
2017-08-19T00:29:53.474Z,0
2017-08-19T00:30:53.143Z,0
2017-08-19T00:31:52.818Z,0
2017-08-19T00:32:53.120Z,0
2017-08-19T00:33:52.805Z,0
2017-08-19T00:34:53.088Z,0
2017-08-19T00:35:52.759Z,0
2017-08-19T00:36:53.378Z,0
2017-08-19T00:37:52.746Z,0
2017-08-19T00:38:53.053Z,0
2017-08-19T00:39:53.017Z,0
2017-08-19T00:40:53.010Z,0
2017-08-19T00:41:52.992Z,0
2017-08-19T00:42:52.979Z,0
2017-08-19T00:43:52.336Z,0
2017-08-19T00:44:52.636Z,0
2017-08-19T00:45:52.936Z,0
2017-08-19T00:46:52.919Z,0
2017-08-19T00:47:52.602Z,0
2017-08-19T00:48:53.221Z,0
2017-08-19T00:49:52.896Z,0
2017-08-19T00:50:52.554Z,0
2017-08-19T00:51:52.862Z,0
2017-08-19T00:52:52.730Z,0
2017-08-19T00:53:52.824Z,0
2017-08-19T00:54:52.188Z,0
2017-08-19T00:55:52.796Z,0
2017-08-19T00:56:53.101Z,0
2017-08-19T00:57:53.081Z,0
2017-08-19T00:58:53.070Z,0
2017-08-19T00:59:52.747Z,0
2017-08-19T01:00:52.416Z,0
2017-08-19T01:01:53.025Z,0
2017-08-19T01:02:52.391Z,0
2017-08-19T01:03:52.063Z,0
2017-08-19T01:04:52.988Z,0
2017-08-19T01:05:52.348Z,0
2017-08-19T01:06:52.663Z,0
2017-08-19T01:07:52.948Z,0
2017-08-19T01:08:52.313Z,0
2017-08-19T01:09:52.927Z,0
2017-08-19T01:10:52.903Z,0
2017-08-19T01:11:52.582Z,0
2017-08-19T01:12:52.568Z,0
2017-08-19T01:13:52.236Z,0
2017-08-19T01:14:52.867Z,0
2017-08-19T01:15:52.526Z,0
2017-08-19T01:16:52.824Z,0
2017-08-19T01:17:52.812Z,0
2017-08-19T01:18:52.792Z,0
2017-08-19T01:19:52.779Z,0
2017-08-19T01:20:52.456Z,0
2017-08-19T01:21:52.129Z,0
2017-08-19T01:22:52.430Z,0
2017-08-19T01:23:52.420Z,0
2017-08-19T01:24:52.713Z,0
2017-08-19T01:25:52.723Z,0
2017-08-19T01:26:52.684Z,0
2017-08-19T01:27:52.363Z,0
2017-08-19T01:28:52.660Z,0
2017-08-19T01:29:52.644Z,0
2017-08-19T01:30:52.012Z,0
2017-08-19T01:31:52.618Z,0
2017-08-19T01:32:52.597Z,0
2017-08-19T01:33:52.278Z,0
2017-08-19T01:34:52.579Z,0
2017-08-19T01:35:52.251Z,0
2017-08-19T01:36:52.272Z,0
2017-08-19T01:37:52.226Z,0
2017-08-19T01:38:52.516Z,0
2017-08-19T01:39:52.506Z,0
2017-08-19T01:40:52.176Z,0
2017-08-19T01:41:52.169Z,0
2017-08-19T01:42:52.146Z,0
2017-08-19T01:43:51.825Z,0
2017-08-19T01:44:52.124Z,0
2017-08-19T01:45:51.789Z,0
2017-08-19T01:46:52.424Z,0
2017-08-19T01:47:52.089Z,0
2017-08-19T01:48:51.751Z,0
2017-08-19T01:49:51.744Z,0
2017-08-19T01:50:52.355Z,0
2017-08-19T01:51:51.712Z,0
2017-08-19T01:52:52.012Z,0
2017-08-19T01:53:51.693Z,0
2017-08-19T01:54:52.290Z,0
2017-08-19T01:55:51.968Z,0
2017-08-19T01:56:51.641Z,0
2017-08-19T01:57:51.944Z,0
2017-08-19T01:58:51.618Z,0
2017-08-19T01:59:51.605Z,0
2017-08-19T02:00:52.213Z,0
2017-08-19T02:01:52.197Z,0
2017-08-19T02:02:51.922Z,0
2017-08-19T02:03:51.650Z,0
2017-08-19T02:04:51.234Z,0
2017-08-19T02:05:51.513Z,0
2017-08-19T02:06:51.810Z,0
2017-08-19T02:07:51.795Z,0
2017-08-19T02:08:51.781Z,0
2017-08-19T02:09:52.087Z,0
2017-08-19T02:10:51.751Z,0
2017-08-19T02:11:52.055Z,0
2017-08-19T02:12:51.732Z,0
2017-08-19T02:13:51.737Z,0
2017-08-19T02:14:51.703Z,0
2017-08-19T02:15:51.392Z,0
2017-08-19T02:16:51.677Z,0
2017-08-19T02:17:51.350Z,0
2017-08-19T02:18:51.641Z,0
2017-08-19T02:19:51.329Z,0
2017-08-19T02:20:51.613Z,0
2017-08-19T02:21:50.971Z,0
2017-08-19T02:22:51.591Z,0
2017-08-19T02:23:51.571Z,0
2017-08-19T02:24:51.559Z,0
2017-08-19T02:25:51.546Z,0
2017-08-19T02:26:51.532Z,0
2017-08-19T02:27:51.518Z,0
2017-08-19T02:28:51.812Z,0
2017-08-19T02:29:51.855Z,0
2017-08-19T02:30:51.479Z,0
2017-08-19T02:31:51.774Z,0
2017-08-19T02:32:51.134Z,0
2017-08-19T02:33:51.427Z,0
2017-08-19T02:34:51.419Z,0
2017-08-19T02:35:51.405Z,0
2017-08-19T02:36:51.394Z,0
2017-08-19T02:37:51.384Z,0
2017-08-19T02:38:51.361Z,0
2017-08-19T02:39:51.030Z,0
2017-08-19T02:40:51.037Z,0
2017-08-19T02:41:51.322Z,0
2017-08-19T02:42:51.307Z,0
2017-08-19T02:43:50.978Z,0
2017-08-19T02:44:51.003Z,0
2017-08-19T02:45:50.962Z,0
2017-08-19T02:46:51.565Z,0
2017-08-19T02:47:51.231Z,0
2017-08-19T02:48:50.908Z,0
2017-08-19T02:49:51.516Z,0
2017-08-19T02:50:51.501Z,0
2017-08-19T02:51:51.172Z,0
2017-08-19T02:52:51.489Z,0
2017-08-19T02:53:51.464Z,0
2017-08-19T02:54:51.133Z,0
2017-08-19T02:55:50.801Z,0
2017-08-19T02:56:51.103Z,0
2017-08-19T02:57:50.772Z,0
2017-08-19T02:58:51.074Z,0
2017-08-19T02:59:50.753Z,0
2017-08-19T03:00:51.047Z,0
2017-08-19T03:01:51.338Z,0
2017-08-19T03:02:51.030Z,0
2017-08-19T03:03:50.688Z,0
2017-08-19T03:04:50.366Z,0
2017-08-19T03:05:50.971Z,0
2017-08-19T03:06:51.274Z,0
2017-08-19T03:07:50.332Z,0
2017-08-19T03:08:50.929Z,0
2017-08-19T03:09:51.234Z,0
2017-08-19T03:10:51.225Z,0
2017-08-19T03:11:50.575Z,0
2017-08-19T03:12:50.559Z,0
2017-08-19T03:13:50.853Z,0
2017-08-19T03:14:50.853Z,0
2017-08-19T03:15:50.825Z,0
2017-08-19T03:16:50.502Z,0
2017-08-19T03:17:50.485Z,0
2017-08-19T03:18:50.471Z,0
2017-08-19T03:19:50.771Z,0
2017-08-19T03:20:50.756Z,0
2017-08-19T03:21:50.740Z,0
2017-08-19T03:22:50.412Z,0
2017-08-19T03:23:51.027Z,0
2017-08-19T03:24:50.402Z,0
2017-08-19T03:25:50.689Z,0
2017-08-19T03:26:50.670Z,0
2017-08-19T03:27:50.667Z,0
2017-08-19T03:28:50.639Z,0
2017-08-19T03:29:50.623Z,0
2017-08-19T03:30:50.306Z,0
2017-08-19T03:31:50.600Z,0
2017-08-19T03:32:50.584Z,0
2017-08-19T03:33:49.942Z,0
2017-08-19T03:34:50.874Z,0
2017-08-19T03:35:50.228Z,0
2017-08-19T03:36:50.832Z,0
2017-08-19T03:37:50.827Z,0
2017-08-19T03:38:50.185Z,0
2017-08-19T03:39:50.510Z,0
2017-08-19T03:40:50.779Z,0
2017-08-19T03:41:50.451Z,0
2017-08-19T03:42:50.119Z,0
2017-08-19T03:43:50.748Z,0
2017-08-19T03:44:50.417Z,0
2017-08-19T03:45:50.397Z,0
2017-08-19T03:46:50.069Z,0
2017-08-19T03:47:50.377Z,0
2017-08-19T03:48:50.038Z,0
2017-08-19T03:49:50.538Z,0
2017-08-19T03:50:50.009Z,0
2017-08-19T03:51:50.303Z,0
2017-08-19T03:52:49.987Z,0
2017-08-19T03:53:50.618Z,4
2017-08-19T03:54:50.588Z,4
2017-08-19T03:55:49.936Z,4
2017-08-19T03:56:50.554Z,4
2017-08-19T03:57:50.224Z,4
2017-08-19T03:58:50.210Z,4
2017-08-19T03:59:49.878Z,8
2017-08-19T04:00:50.203Z,4
2017-08-19T04:01:50.184Z,8
2017-08-19T04:02:49.837Z,8
2017-08-19T04:03:50.443Z,12
2017-08-19T04:04:50.115Z,12
2017-08-19T04:05:50.103Z,16
2017-08-19T04:06:49.784Z,16
2017-08-19T04:07:50.072Z,20
2017-08-19T04:08:50.065Z,24
2017-08-19T04:09:50.355Z,28
2017-08-19T04:10:50.340Z,28
2017-08-19T04:11:50.329Z,36
2017-08-19T04:12:50.002Z,40
2017-08-19T04:13:49.993Z,44
2017-08-19T04:14:49.982Z,48
2017-08-19T04:15:49.960Z,56
2017-08-19T04:16:49.949Z,60
2017-08-19T04:17:50.241Z,68
2017-08-19T04:18:49.287Z,76
2017-08-19T04:19:49.907Z,84
2017-08-19T04:20:49.883Z,92
2017-08-19T04:21:49.877Z,100
2017-08-19T04:22:49.853Z,112
2017-08-19T04:23:50.154Z,120
2017-08-19T04:24:49.518Z,132
2017-08-19T04:25:49.505Z,144
2017-08-19T04:26:49.490Z,152
2017-08-19T04:27:49.798Z,168
2017-08-19T04:28:49.769Z,180
2017-08-19T04:29:49.760Z,192
2017-08-19T04:30:49.740Z,204
2017-08-19T04:31:49.419Z,224
2017-08-19T04:32:50.017Z,240
2017-08-19T04:33:49.693Z,256
2017-08-19T04:34:49.421Z,272
2017-08-19T04:35:49.675Z,292
2017-08-19T04:36:50.173Z,312
2017-08-19T04:37:49.951Z,332
2017-08-19T04:38:49.312Z,352
2017-08-19T04:39:49.298Z,376
2017-08-19T04:40:49.908Z,396
2017-08-19T04:41:49.584Z,420
2017-08-19T04:42:48.937Z,444
2017-08-19T04:43:49.557Z,464
2017-08-19T04:44:49.851Z,488
2017-08-19T04:45:49.922Z,504
2017-08-19T04:46:49.843Z,524
2017-08-19T04:47:49.491Z,548
2017-08-19T04:48:49.165Z,568
2017-08-19T04:49:49.777Z,592
2017-08-19T04:50:49.459Z,612
2017-08-19T04:51:49.746Z,632
2017-08-19T04:52:49.425Z,652
2017-08-19T04:53:49.721Z,672
2017-08-19T04:54:49.402Z,692
2017-08-19T04:55:49.377Z,712
2017-08-19T04:56:49.368Z,728
2017-08-19T04:57:49.351Z,748
2017-08-19T04:58:49.030Z,768
2017-08-19T04:59:49.317Z,788
2017-08-19T05:00:49.640Z,804
2017-08-19T05:01:49.293Z,820
2017-08-19T05:02:49.275Z,836
2017-08-19T05:03:49.579Z,856
2017-08-19T05:04:49.249Z,872
2017-08-19T05:05:48.613Z,888
2017-08-19T05:06:48.903Z,908
2017-08-19T05:07:48.890Z,920
2017-08-19T05:08:48.875Z,936
2017-08-19T05:09:48.861Z,952
2017-08-19T05:10:49.160Z,968
2017-08-19T05:11:49.459Z,976
2017-08-19T05:12:49.128Z,992
2017-08-19T05:13:49.126Z,1012
2017-08-19T05:14:49.421Z,1024
2017-08-19T05:15:48.788Z,1032
2017-08-19T05:16:48.760Z,1052
2017-08-19T05:17:50.088Z,1060
2017-08-19T05:18:48.758Z,1068
2017-08-19T05:19:49.390Z,1084
2017-08-19T05:20:49.021Z,1096
2017-08-19T05:21:49.351Z,1112
2017-08-19T05:22:49.305Z,1120
2017-08-19T05:23:48.664Z,1136
2017-08-19T05:24:48.957Z,1148
2017-08-19T05:25:49.259Z,1156
2017-08-19T05:26:49.293Z,1168
2017-08-19T05:27:48.913Z,1180
2017-08-19T05:28:49.216Z,1192
2017-08-19T05:29:48.584Z,1204
2017-08-19T05:30:49.186Z,1216
2017-08-19T05:31:48.859Z,1228
2017-08-19T05:32:49.205Z,1236
2017-08-19T05:33:48.520Z,1248
2017-08-19T05:34:48.541Z,1256
2017-08-19T05:35:49.117Z,1276
2017-08-19T05:36:48.782Z,1288
2017-08-19T05:37:49.098Z,1296
2017-08-19T05:38:48.766Z,1308
2017-08-19T05:39:48.750Z,1316
2017-08-19T05:40:48.649Z,1328
2017-08-19T05:41:48.403Z,1336
2017-08-19T05:42:49.015Z,1348
2017-08-19T05:43:48.689Z,1356
2017-08-19T05:44:48.368Z,1368
2017-08-19T05:45:48.682Z,1376
2017-08-19T05:46:48.641Z,1392
2017-08-19T05:47:48.950Z,1396
2017-08-19T05:48:48.608Z,1416
2017-08-19T05:49:48.803Z,1420
2017-08-19T05:50:48.921Z,1436
2017-08-19T05:51:48.262Z,1440
2017-08-19T05:52:48.556Z,1448
2017-08-19T05:53:48.232Z,1452
2017-08-19T05:54:48.223Z,1464
2017-08-19T05:55:48.890Z,1476
2017-08-19T05:56:48.510Z,1484
2017-08-19T05:57:48.809Z,1496
2017-08-19T05:58:48.794Z,1508
2017-08-19T05:59:48.460Z,1520
2017-08-19T06:00:48.767Z,1536
2017-08-19T06:01:48.475Z,1548
2017-08-19T06:02:48.106Z,1560
2017-08-19T06:03:48.445Z,1564
2017-08-19T06:04:48.101Z,1576
2017-08-19T06:05:48.689Z,1596
2017-08-19T06:06:48.378Z,1624
2017-08-19T06:07:48.366Z,1640
2017-08-19T06:08:48.655Z,1632
2017-08-19T06:09:48.034Z,1624
2017-08-19T06:10:48.018Z,1644
2017-08-19T06:11:47.989Z,1668
2017-08-19T06:12:48.291Z,1656
2017-08-19T06:13:48.262Z,1652
2017-08-19T06:14:47.938Z,1660
2017-08-19T06:15:48.563Z,1660
2017-08-19T06:16:48.547Z,1684
2017-08-19T06:17:47.908Z,1668
2017-08-19T06:18:48.200Z,1680
2017-08-19T06:19:48.215Z,1676
2017-08-19T06:20:48.168Z,1676
2017-08-19T06:21:48.160Z,1684
2017-08-19T06:22:47.520Z,1696
2017-08-19T06:23:47.818Z,1704
2017-08-19T06:24:48.434Z,1712
2017-08-19T06:25:48.424Z,1716
2017-08-19T06:26:48.091Z,1724
2017-08-19T06:27:48.071Z,1736
2017-08-19T06:28:48.064Z,1752
2017-08-19T06:29:48.049Z,1772
2017-08-19T06:30:48.042Z,1792
2017-08-19T06:31:48.022Z,1820
2017-08-19T06:32:47.697Z,1828
2017-08-19T06:33:48.302Z,1824
2017-08-19T06:34:47.979Z,1832
2017-08-19T06:35:47.971Z,1892
2017-08-19T06:36:47.949Z,1924
2017-08-19T06:37:48.251Z,1948
2017-08-19T06:38:48.238Z,1972
2017-08-19T06:39:47.929Z,2044
2017-08-19T06:40:47.911Z,2152
2017-08-19T06:41:47.574Z,2244
2017-08-19T06:42:47.902Z,2588
2017-08-19T06:43:47.862Z,3000
2017-08-19T06:44:47.536Z,3328
2017-08-19T06:45:47.829Z,3468
2017-08-19T06:46:47.825Z,3220
2017-08-19T06:47:47.811Z,3072
2017-08-19T06:48:47.802Z,3484
2017-08-19T06:49:47.780Z,3676
2017-08-19T06:50:48.076Z,3544
2017-08-19T06:51:47.436Z,4668
2017-08-19T06:52:47.424Z,6552
2017-08-19T06:53:47.417Z,8528
2017-08-19T06:54:48.061Z,7560
2017-08-19T06:55:47.075Z,6484
2017-08-19T06:56:47.683Z,6024
2017-08-19T06:57:47.986Z,6212
2017-08-19T06:58:47.354Z,6328
2017-08-19T06:59:47.356Z,6264
2017-08-19T07:00:47.648Z,6028
2017-08-19T07:01:47.347Z,5912
2017-08-19T07:02:47.615Z,5840
2017-08-19T07:03:47.923Z,5616
2017-08-19T07:04:47.898Z,5140
2017-08-19T07:05:47.577Z,4780
2017-08-19T07:06:47.555Z,4876
2017-08-19T07:07:47.238Z,5264
2017-08-19T07:08:47.858Z,5496
2017-08-19T07:09:47.529Z,5356
2017-08-19T07:10:47.515Z,5272
2017-08-19T07:11:47.815Z,5396
2017-08-19T07:12:47.798Z,6076
2017-08-19T07:13:47.165Z,5732
2017-08-19T07:14:47.469Z,6356
2017-08-19T07:15:47.767Z,7512
2017-08-19T07:16:47.758Z,8124
2017-08-19T07:17:46.824Z,8500
2017-08-19T07:18:46.795Z,7988
2017-08-19T07:19:47.412Z,6836
2017-08-19T07:20:47.702Z,6568
2017-08-19T07:21:47.704Z,7056
2017-08-19T07:22:47.372Z,7292
2017-08-19T07:23:47.369Z,7156
2017-08-19T07:24:47.349Z,6872
2017-08-19T07:25:47.024Z,6696
2017-08-19T07:26:46.705Z,6280
2017-08-19T07:27:47.306Z,6168
2017-08-19T07:28:46.985Z,6064
2017-08-19T07:29:46.977Z,6252
2017-08-19T07:30:47.287Z,7292
2017-08-19T07:31:47.266Z,7916
2017-08-19T07:32:46.945Z,7616
2017-08-19T07:33:47.243Z,6348
2017-08-19T07:34:47.397Z,5640
2017-08-19T07:35:46.946Z,5272
2017-08-19T07:36:47.228Z,5492
2017-08-19T07:37:47.277Z,5840
2017-08-19T07:38:46.877Z,5464
2017-08-19T07:39:47.177Z,5516
2017-08-19T07:40:47.160Z,6416
2017-08-19T07:41:47.148Z,6336
2017-08-19T07:42:47.140Z,5124
2017-08-19T07:43:47.123Z,5908
2017-08-19T07:44:47.113Z,6640
2017-08-19T07:45:47.107Z,7584
2017-08-19T07:46:47.291Z,8172
2017-08-19T07:47:47.084Z,6320
2017-08-19T07:48:46.770Z,4676
2017-08-19T07:49:47.257Z,4904
2017-08-19T07:50:47.042Z,6472
2017-08-19T07:51:47.030Z,7576
2017-08-19T07:52:47.347Z,7376
2017-08-19T07:53:47.342Z,6324
2017-08-19T07:54:46.686Z,6268
2017-08-19T07:55:46.990Z,6340
2017-08-19T07:56:46.992Z,6812
2017-08-19T07:57:47.001Z,6804
2017-08-19T07:58:46.648Z,6692
2017-08-19T07:59:46.938Z,7236
2017-08-19T08:00:46.634Z,7544
2017-08-19T08:01:46.942Z,7316
2017-08-19T08:02:46.601Z,7628
2017-08-19T08:03:46.581Z,7420
2017-08-19T08:04:46.886Z,7212
2017-08-19T08:05:46.876Z,8132
2017-08-19T08:06:47.172Z,10200
2017-08-19T08:07:46.854Z,11604
2017-08-19T08:08:46.844Z,11920
2017-08-19T08:09:46.835Z,12408
2017-08-19T08:10:46.822Z,11456
2017-08-19T08:11:46.810Z,13224
2017-08-19T08:12:46.801Z,10840
2017-08-19T08:13:46.792Z,11816
2017-08-19T08:14:46.150Z,12824
2017-08-19T08:15:46.763Z,15212
2017-08-19T08:18:15.446Z,18080
2017-08-19T08:19:15.770Z,12140
2017-08-19T08:20:15.732Z,12348
2017-08-19T08:21:15.740Z,17600
2017-08-19T08:22:15.712Z,47200
2017-08-19T08:23:15.386Z,32160
2017-08-19T08:24:15.683Z,11288
2017-08-19T08:25:15.678Z,10276
2017-08-19T09:12:37.823Z,18304
2017-08-19T09:13:38.145Z,16864
2017-08-19T09:14:38.092Z,13808
2017-08-19T09:15:38.006Z,14396
2017-08-19T09:16:38.018Z,15912
2017-08-19T09:17:38.011Z,15508
2017-08-19T09:18:38.284Z,9908
2017-08-19T09:19:38.293Z,13772
2017-08-19T09:20:37.949Z,13200
2017-08-19T09:21:37.934Z,9324
2017-08-19T09:22:38.241Z,10164
2017-08-19T09:23:37.606Z,11280
2017-08-19T09:24:37.898Z,15796
2017-08-19T09:25:37.896Z,15476
2017-08-19T09:26:37.561Z,14224
2017-08-19T09:27:37.869Z,9072
2017-08-19T09:28:37.869Z,8008
2017-08-19T09:29:37.560Z,7760
2017-08-19T09:30:37.547Z,8516
2017-08-19T09:31:37.827Z,11016
2017-08-19T09:32:37.818Z,11300
2017-08-19T09:33:38.778Z,11424
2017-08-19T09:34:38.113Z,10060
2017-08-19T09:35:38.093Z,9924
2017-08-19T09:36:38.103Z,9712
2017-08-19T09:37:37.757Z,8860
2017-08-19T09:38:38.066Z,12560
2017-08-19T09:39:37.747Z,16296
2017-08-19T09:40:38.058Z,15860
2017-08-19T09:41:38.036Z,15900
2017-08-19T09:42:37.710Z,15248
2017-08-19T09:43:37.697Z,13496
2017-08-19T09:44:37.703Z,14188
2017-08-19T09:45:37.999Z,13020
2017-08-19T09:46:37.674Z,13196
2017-08-19T09:47:37.357Z,13340
2017-08-19T09:48:37.656Z,13352
2017-08-19T09:49:37.217Z,17760
2017-08-19T09:50:37.637Z,17024
2017-08-19T09:51:37.951Z,13664
2017-08-19T09:52:37.308Z,11252
2017-08-19T09:53:37.605Z,7588
2017-08-19T09:54:37.611Z,7252
2017-08-19T09:55:37.907Z,9512
2017-08-19T09:56:37.581Z,8752
2017-08-19T09:57:37.572Z,6788
2017-08-19T09:58:37.564Z,5396
2017-08-19T09:59:37.557Z,6176
2017-08-19T10:00:37.534Z,7400
2017-08-19T10:01:37.218Z,7976
2017-08-19T10:02:37.522Z,9820
2017-08-19T10:03:37.850Z,14416
2017-08-19T10:04:37.197Z,18976
2017-08-19T10:05:37.807Z,21984
2017-08-19T10:06:37.804Z,19264
2017-08-19T10:07:36.849Z,17760
2017-08-19T10:08:37.149Z,18592
2017-08-19T10:09:37.453Z,15336
2017-08-19T10:10:37.132Z,15680
2017-08-19T10:11:37.745Z,12852
2017-08-19T10:12:37.114Z,10408
2017-08-19T10:13:37.730Z,10744
2017-08-19T10:14:37.091Z,15168
2017-08-19T10:15:37.395Z,15036
2017-08-19T10:16:37.383Z,12764
2017-08-19T10:17:37.073Z,16220
2017-08-19T10:18:37.681Z,13916
2017-08-19T10:19:37.698Z,10876
2017-08-19T10:20:37.383Z,8700
2017-08-19T10:21:37.654Z,8492
2017-08-19T10:22:37.019Z,10080
2017-08-19T10:23:37.345Z,7516
2017-08-19T10:24:37.643Z,6160
2017-08-19T10:25:37.306Z,6632
2017-08-19T10:26:37.037Z,6204
2017-08-19T10:27:37.294Z,4276
2017-08-19T10:28:37.592Z,2984
2017-08-19T10:29:37.008Z,3092
2017-08-19T10:30:37.571Z,3192
2017-08-19T10:31:37.253Z,3304
2017-08-19T10:32:37.559Z,3628
2017-08-19T10:33:37.547Z,2768
2017-08-19T10:34:37.248Z,1824
2017-08-19T10:35:37.215Z,1768
2017-08-19T10:36:37.212Z,2880
2017-08-19T10:37:36.880Z,5208
2017-08-19T10:38:37.185Z,4676
2017-08-19T10:39:37.166Z,3672
2017-08-19T10:40:37.164Z,3708
2017-08-19T10:41:36.529Z,4164
2017-08-19T10:42:36.831Z,7060
2017-08-19T10:43:37.126Z,11796
2017-08-19T10:44:37.435Z,15872
2017-08-19T10:45:36.794Z,13072
2017-08-19T10:46:36.797Z,14224
2017-08-19T10:47:36.465Z,19584
2017-08-19T10:48:37.391Z,26112
2017-08-19T10:49:37.075Z,20000
2017-08-19T10:50:37.571Z,14620
2017-08-19T10:51:37.366Z,15104
2017-08-19T10:52:37.352Z,17408
2017-08-19T10:53:37.024Z,19776
2017-08-19T10:54:37.333Z,19232
2017-08-19T10:55:37.011Z,18720
2017-08-19T10:56:37.314Z,21184
2017-08-19T10:57:36.691Z,29856
2017-08-19T10:58:36.679Z,26432
2017-08-19T10:59:36.663Z,23040
2017-08-19T11:00:37.280Z,32672
2017-08-19T11:01:36.641Z,34112
2017-08-19T11:02:36.942Z,26880
2017-08-19T11:03:37.251Z,26944
2017-08-19T11:04:36.305Z,26624
2017-08-19T11:05:36.608Z,25568
2017-08-19T11:06:36.606Z,31200
2017-08-19T11:07:37.271Z,26944
2017-08-19T11:08:37.226Z,29600
2017-08-19T11:09:37.208Z,49344
2017-08-19T11:10:36.881Z,29120
2017-08-19T11:11:36.560Z,26528
2017-08-19T11:12:36.553Z,23488
2017-08-19T11:13:36.865Z,24128
2017-08-19T11:14:36.852Z,28288
2017-08-19T11:15:36.847Z,85792
2017-08-19T11:16:36.851Z,63136
2017-08-19T11:17:36.841Z,80448
2017-08-19T11:18:36.827Z,82176
2017-08-19T11:19:36.819Z,50816
2017-08-19T11:20:36.832Z,88992
2017-08-19T11:21:36.820Z,91936
2017-08-19T11:22:36.183Z,18656
2017-08-19T11:23:37.116Z,26784
2017-08-19T11:24:36.495Z,14796
2017-08-19T11:25:36.805Z,19360
2017-08-19T11:26:36.486Z,13944
2017-08-19T11:27:36.792Z,9924
2017-08-19T11:28:36.799Z,10248
2017-08-19T11:29:36.158Z,10220
2017-08-19T11:30:36.471Z,10484
2017-08-19T11:31:36.780Z,10996
2017-08-19T11:32:36.463Z,16060
2017-08-19T11:33:36.463Z,88384
2017-08-19T11:34:36.755Z,29024
2017-08-19T11:35:37.077Z,23968
2017-08-19T11:36:37.068Z,13224
2017-08-19T11:37:36.770Z,7216
2017-08-19T11:38:36.742Z,3792
2017-08-19T11:39:37.046Z,3024
2017-08-19T11:40:37.063Z,2984
2017-08-19T11:41:36.732Z,2592
2017-08-19T11:42:36.726Z,1932
2017-08-19T11:43:36.968Z,1852
2017-08-19T11:44:37.022Z,2136
2017-08-19T11:45:36.718Z,2196
2017-08-19T11:46:37.014Z,2228
2017-08-19T11:47:36.375Z,2232
2017-08-19T11:48:36.387Z,2280
2017-08-19T11:49:36.567Z,2376
2017-08-19T11:50:36.416Z,2552
2017-08-19T11:51:36.351Z,2744
2017-08-19T11:52:36.654Z,3484
2017-08-19T11:53:36.645Z,5292
2017-08-19T11:54:36.036Z,7692
2017-08-19T11:55:36.626Z,10776
2017-08-19T11:56:36.623Z,12876
2017-08-19T11:57:36.944Z,18048
2017-08-19T11:58:36.438Z,48640
2017-08-19T11:59:36.284Z,50656
2017-08-19T12:00:36.589Z,30592
2017-08-19T12:01:36.891Z,14756
2017-08-19T12:02:36.253Z,19648
2017-08-19T12:03:36.874Z,29152
2017-08-19T12:04:36.860Z,108256
2017-08-19T12:05:36.589Z,108960
2017-08-19T12:06:36.224Z,101056
2017-08-19T12:07:35.920Z,95360
2017-08-19T12:08:36.838Z,91552
2017-08-19T12:09:36.204Z,87648
2017-08-19T12:10:36.199Z,86752
2017-08-19T12:11:36.191Z,83200
2017-08-19T12:12:36.862Z,83520
2017-08-19T12:13:36.808Z,90016
2017-08-19T12:14:36.182Z,94176
2017-08-19T12:15:36.180Z,100896
2017-08-19T12:16:36.186Z,102624
2017-08-19T12:17:36.482Z,100352
2017-08-19T12:18:35.854Z,96544
2017-08-19T12:19:36.168Z,90464
2017-08-19T12:20:36.790Z,85120
2017-08-19T12:21:36.792Z,78496
2017-08-19T12:22:36.169Z,74592
2017-08-19T12:23:36.797Z,73856
2017-08-19T12:24:36.478Z,76704
2017-08-19T12:25:36.473Z,79744
2017-08-19T12:26:36.478Z,84704
2017-08-19T12:27:36.815Z,88960
2017-08-19T12:28:37.000Z,92224
2017-08-19T12:29:36.479Z,94336
2017-08-19T12:30:36.795Z,95808
2017-08-19T12:31:36.481Z,97632
2017-08-19T12:32:36.806Z,102080
2017-08-19T12:33:36.481Z,103392
2017-08-19T12:34:36.252Z,109120
2017-08-19T12:35:36.489Z,26432
2017-08-19T12:36:36.490Z,58464
2017-08-19T12:37:36.494Z,19904
2017-08-19T12:38:35.868Z,36544
2017-08-19T12:39:35.886Z,18624
2017-08-19T12:40:36.505Z,16144
2017-08-19T12:41:36.189Z,10052
2017-08-19T12:42:36.525Z,7444
2017-08-19T12:43:36.191Z,6524
2017-08-19T12:44:36.504Z,5532
2017-08-19T12:45:36.191Z,5032
2017-08-19T12:46:36.822Z,4932
2017-08-19T12:47:36.498Z,4112
2017-08-19T12:48:36.199Z,4180
2017-08-19T12:49:36.181Z,4772
2017-08-19T12:50:36.798Z,4952
2017-08-19T12:51:36.169Z,4880
2017-08-19T12:52:36.479Z,4580
2017-08-19T12:53:36.275Z,3616
2017-08-19T12:54:35.848Z,2456
2017-08-19T12:55:36.883Z,1572
2017-08-19T12:56:36.533Z,1292
2017-08-19T12:57:36.151Z,1108
2017-08-19T12:58:36.777Z,1072
2017-08-19T12:59:36.452Z,1172
2017-08-19T13:00:36.140Z,1588
2017-08-19T13:01:36.861Z,2468
2017-08-19T13:02:36.453Z,3844
2017-08-19T13:03:36.423Z,6024
2017-08-19T13:04:36.734Z,8580
2017-08-19T13:05:36.098Z,11580
2017-08-19T13:06:36.716Z,15616
2017-08-19T13:07:36.102Z,10680
2017-08-19T13:08:36.393Z,9812
2017-08-19T13:09:36.381Z,8484
2017-08-19T13:10:36.109Z,7432
2017-08-19T13:11:36.070Z,6292
2017-08-19T13:12:36.698Z,5376
2017-08-19T13:13:36.037Z,4988
2017-08-19T13:14:36.048Z,4580
2017-08-19T13:15:36.646Z,4044
2017-08-19T13:16:36.329Z,3668
2017-08-19T13:17:36.160Z,3632
2017-08-19T13:18:36.320Z,3896
2017-08-19T13:19:35.991Z,3936
2017-08-19T13:20:36.297Z,3692
2017-08-19T13:21:36.279Z,3632
2017-08-19T13:22:36.593Z,4012
2017-08-19T13:23:36.323Z,3984
2017-08-19T13:24:35.949Z,3744
2017-08-19T13:25:36.258Z,4400
2017-08-19T13:26:36.610Z,5948
2017-08-19T13:27:35.915Z,88416
2017-08-19T13:28:35.913Z,9260
2017-08-19T13:29:36.287Z,9656
2017-08-19T13:30:36.519Z,8080
2017-08-19T13:31:36.198Z,7988
2017-08-19T13:32:35.895Z,10788
2017-08-19T13:33:36.490Z,65536
2017-08-19T13:34:35.557Z,78176
2017-08-19T13:35:36.482Z,75712
2017-08-19T13:36:36.153Z,9248
2017-08-19T13:37:36.154Z,39648
2017-08-19T13:38:35.836Z,7144
2017-08-19T13:39:36.136Z,4736
2017-08-19T13:40:35.884Z,3632
2017-08-19T13:41:36.119Z,3340
2017-08-19T13:42:36.212Z,3852
2017-08-19T13:43:36.368Z,5072
2017-08-19T13:44:36.103Z,6976
2017-08-19T13:45:35.507Z,9432
2017-08-19T13:46:36.088Z,24768
2017-08-19T13:47:35.765Z,17056
2017-08-19T13:48:36.072Z,28160
2017-08-19T13:49:36.129Z,77504
2017-08-19T13:50:36.053Z,75776
2017-08-19T13:51:35.733Z,71456
2017-08-19T13:52:36.047Z,27712
2017-08-19T13:53:36.038Z,11660
2017-08-19T13:54:35.721Z,19904
2017-08-19T13:55:36.031Z,11484
2017-08-19T13:56:35.734Z,8048
2017-08-19T13:57:36.026Z,5732
2017-08-19T13:58:36.012Z,4488
2017-08-19T13:59:36.004Z,3968
2017-08-19T14:00:35.995Z,3332
2017-08-19T14:01:36.195Z,2424
2017-08-19T14:02:35.990Z,2108
2017-08-19T14:03:35.983Z,2352
2017-08-19T14:04:35.679Z,2736
2017-08-19T14:05:35.966Z,2788
2017-08-19T14:06:35.982Z,3200
2017-08-19T14:07:35.959Z,3980
2017-08-19T14:08:35.946Z,4644
2017-08-19T14:09:35.941Z,4580
2017-08-19T14:10:35.820Z,3880
2017-08-19T14:11:36.204Z,3220
2017-08-19T14:12:35.952Z,2532
2017-08-19T14:13:35.623Z,1900
2017-08-19T14:14:36.223Z,1624
2017-08-19T14:15:35.907Z,1544
2017-08-19T14:16:36.215Z,1384
2017-08-19T14:17:36.106Z,1280
2017-08-19T14:18:35.881Z,1300
2017-08-19T14:19:35.866Z,1528
2017-08-19T14:20:35.866Z,2032
2017-08-19T14:21:35.850Z,2680
2017-08-19T14:22:35.849Z,3460
2017-08-19T14:23:35.851Z,4628
2017-08-19T14:24:36.153Z,5992
2017-08-19T14:25:35.823Z,7104
2017-08-19T14:26:36.136Z,7744
2017-08-19T14:27:36.175Z,7712